createdAt,value
2022-10-19T00:01:10.878Z,87.25
2022-10-19T00:03:38.423Z,87.58
2022-10-19T00:06:17.157Z,87.72
2022-10-19T00:08:44.650Z,87.75
2022-10-19T00:11:12.278Z,87.63
2022-10-19T00:13:39.484Z,86.92
2022-10-19T00:16:17.073Z,87.64
2022-10-19T00:18:44.975Z,87.31
2022-10-19T00:21:19.274Z,86.90
2022-10-19T00:23:46.669Z,86.81
2022-10-19T00:26:14.190Z,86.44
2022-10-19T00:28:42.131Z,86.47
2022-10-19T00:31:11.929Z,86.41
2022-10-19T00:33:39.275Z,86.56
2022-10-19T00:36:06.965Z,86.52
2022-10-19T00:38:34.120Z,86.40
2022-10-19T00:41:02.417Z,86.54
2022-10-19T00:43:30.987Z,86.82
2022-10-19T00:45:58.192Z,87.36
2022-10-19T00:48:29.995Z,87.62
2022-10-19T00:50:58.836Z,87.80
2022-10-19T00:53:28.196Z,87.99
2022-10-19T00:55:56.050Z,88.02
2022-10-19T00:58:23.309Z,88.32
2022-10-19T01:00:50.667Z,88.37
2022-10-19T01:03:18.221Z,88.54
2022-10-19T01:05:45.911Z,88.20
2022-10-19T01:08:13.665Z,88.00
2022-10-19T01:10:53.220Z,88.90
2022-10-19T01:13:29.585Z,89.25
2022-10-19T01:15:56.746Z,88.40
2022-10-19T01:18:33.681Z,88.38
2022-10-19T01:21:03.902Z,88.52
2022-10-19T01:23:44.533Z,88.75
2022-10-19T01:26:37.914Z,89.06
2022-10-19T01:29:16.973Z,88.89
2022-10-19T01:32:02.667Z,88.87
2022-10-19T01:34:33.960Z,88.60
2022-10-19T01:37:05.310Z,88.85
2022-10-19T01:39:45.323Z,88.69
2022-10-19T01:42:18.603Z,88.66
2022-10-19T01:44:50.494Z,88.55
2022-10-19T01:47:30.926Z,88.40
2022-10-19T01:50:16.587Z,88.39
2022-10-19T01:52:44.061Z,87.96
2022-10-19T01:55:13.491Z,87.77
2022-10-19T01:57:43.100Z,87.93
2022-10-19T02:00:11.739Z,88.28
2022-10-19T02:02:40.962Z,88.15
2022-10-19T02:05:08.361Z,88.51
2022-10-19T02:07:36.297Z,88.37
2022-10-19T02:10:03.910Z,88.38
2022-10-19T02:12:32.566Z,88.78
2022-10-19T02:15:01.919Z,88.72
2022-10-19T02:17:32.026Z,89.13
2022-10-19T02:19:59.765Z,89.04
2022-10-19T02:22:27.436Z,89.11
2022-10-19T02:24:55.136Z,88.86
2022-10-19T02:27:22.562Z,88.64
2022-10-19T02:29:49.774Z,89.37
2022-10-19T02:32:16.984Z,89.75
2022-10-19T02:34:44.313Z,89.78
2022-10-19T02:37:11.534Z,89.70
2022-10-19T02:39:39.813Z,88.99
2022-10-19T02:42:22.591Z,89.77
2022-10-19T02:45:09.571Z,89.70
2022-10-19T02:47:38.878Z,89.33
2022-10-19T02:50:06.969Z,89.40
2022-10-19T02:52:36.425Z,89.06
2022-10-19T02:55:03.768Z,89.35
2022-10-19T02:57:32.703Z,89.46
2022-10-19T03:00:00.271Z,89.48
2022-10-19T03:02:27.422Z,89.52
2022-10-19T03:04:54.563Z,89.78
2022-10-19T03:07:21.821Z,89.77
2022-10-19T03:09:49.499Z,89.66
2022-10-19T03:12:16.733Z,90.00
2022-10-19T03:14:43.978Z,90.71
2022-10-19T03:17:11.499Z,90.85
2022-10-19T03:19:38.620Z,90.90
2022-10-19T03:22:05.823Z,90.64
2022-10-19T03:24:33.256Z,90.50
2022-10-19T03:27:00.413Z,90.84
2022-10-19T03:29:27.532Z,90.89
2022-10-19T03:31:54.609Z,91.07
2022-10-19T03:34:21.648Z,91.15
2022-10-19T03:36:48.891Z,90.96
2022-10-19T03:39:16.845Z,90.89
2022-10-19T03:41:44.055Z,91.11
2022-10-19T03:44:11.631Z,90.93
2022-10-19T03:46:39.202Z,91.19
2022-10-19T03:49:06.740Z,91.15
2022-10-19T03:51:34.160Z,91.56
2022-10-19T03:54:02.855Z,91.54
2022-10-19T03:56:30.881Z,91.70
2022-10-19T03:58:59.124Z,91.19
2022-10-19T04:01:37.278Z,91.25
2022-10-19T04:04:05.770Z,91.18
2022-10-19T04:06:34.543Z,91.24
2022-10-19T04:09:01.933Z,91.39
2022-10-19T04:11:30.151Z,91.47
2022-10-19T04:13:57.863Z,91.57
2022-10-19T04:16:25.792Z,91.63
2022-10-19T04:18:52.933Z,91.78
2022-10-19T04:21:20.440Z,91.37
2022-10-19T04:23:47.992Z,91.02
2022-10-19T04:26:15.178Z,91.24
2022-10-19T04:28:42.370Z,90.79
2022-10-19T04:31:10.605Z,91.61
2022-10-19T04:33:37.781Z,91.84
2022-10-19T04:36:06.539Z,92.18
2022-10-19T04:38:33.894Z,91.94
2022-10-19T04:41:09.328Z,92.34
2022-10-19T04:43:37.084Z,92.19
2022-10-19T04:46:08.375Z,91.89
2022-10-19T04:48:36.298Z,91.53
2022-10-19T04:51:04.000Z,91.71
2022-10-19T04:53:31.682Z,91.64
2022-10-19T04:55:58.803Z,92.42
2022-10-19T04:58:26.028Z,92.49
2022-10-19T05:00:53.186Z,92.25
2022-10-19T05:03:20.329Z,92.50
2022-10-19T05:05:47.490Z,92.32
2022-10-19T05:08:14.674Z,92.29
2022-10-19T05:10:45.441Z,91.80
2022-10-19T05:13:14.803Z,91.70
2022-10-19T05:15:41.893Z,91.77
2022-10-19T05:18:08.939Z,91.96
2022-10-19T05:20:36.038Z,91.90
2022-10-19T05:23:06.377Z,91.67
2022-10-19T05:25:34.645Z,91.75
2022-10-19T05:28:01.856Z,91.59
2022-10-19T05:30:28.944Z,91.71
2022-10-19T05:32:56.074Z,91.61
2022-10-19T05:35:23.182Z,91.68
2022-10-19T05:37:54.270Z,91.59
2022-10-19T05:40:21.417Z,91.67
2022-10-19T05:42:48.549Z,91.71
2022-10-19T05:45:15.746Z,91.74
2022-10-19T05:47:42.861Z,91.93
2022-10-19T05:50:09.966Z,92.10
2022-10-19T05:52:37.103Z,92.42
2022-10-19T05:55:04.406Z,92.78
2022-10-19T05:57:32.287Z,92.73
2022-10-19T05:59:59.552Z,92.98
2022-10-19T06:02:26.717Z,93.17
2022-10-19T06:04:53.882Z,93.05
2022-10-19T06:07:21.201Z,92.88
2022-10-19T06:09:48.365Z,92.84
2022-10-19T06:12:16.357Z,92.15
2022-10-19T06:14:43.764Z,91.91
2022-10-19T06:17:11.042Z,90.42
2022-10-19T06:19:38.238Z,90.54
2022-10-19T06:22:05.404Z,89.67
2022-10-19T06:24:32.620Z,89.28
2022-10-19T06:26:59.819Z,89.46
2022-10-19T06:29:26.982Z,89.72
2022-10-19T06:31:56.035Z,89.64
2022-10-19T06:34:23.290Z,89.83
2022-10-19T06:36:50.592Z,89.89
2022-10-19T06:39:17.702Z,89.54
2022-10-19T06:41:44.813Z,89.33
2022-10-19T06:44:18.956Z,89.12
2022-10-19T06:46:46.098Z,88.84
2022-10-19T06:49:13.808Z,88.77
2022-10-19T06:51:41.063Z,88.73
2022-10-19T06:54:08.220Z,89.02
2022-10-19T06:56:35.365Z,88.48
2022-10-19T06:59:02.565Z,88.21
2022-10-19T07:01:29.822Z,88.14
2022-10-19T07:03:57.115Z,88.08
2022-10-19T07:06:24.266Z,88.01
2022-10-19T07:08:52.351Z,88.09
2022-10-19T07:11:20.682Z,88.01
2022-10-19T07:13:47.957Z,87.88
2022-10-19T07:16:19.640Z,87.88
2022-10-19T07:18:49.473Z,87.76
2022-10-19T07:21:17.106Z,87.49
2022-10-19T07:23:47.455Z,87.37
2022-10-19T07:26:23.444Z,88.86
2022-10-19T07:28:51.005Z,89.40
2022-10-19T07:31:20.326Z,90.33
2022-10-19T07:33:48.036Z,90.59
2022-10-19T07:36:15.207Z,90.91
2022-10-19T07:38:51.572Z,90.73
2022-10-19T07:41:20.504Z,89.74
2022-10-19T07:43:48.299Z,88.85
2022-10-19T07:46:17.072Z,88.01
2022-10-19T07:48:44.511Z,85.90
2022-10-19T07:51:13.061Z,80.88
2022-10-19T07:53:40.270Z,73.79
2022-10-19T07:56:08.939Z,72.99
2022-10-19T07:58:36.657Z,74.78
2022-10-19T08:01:07.290Z,73.67
2022-10-19T08:06:22.425Z,76.45
2022-10-19T08:08:50.058Z,71.46
2022-10-19T08:11:30.678Z,69.59
2022-10-19T08:13:59.313Z,69.93
2022-10-19T08:16:40.558Z,71.07
2022-10-19T08:19:09.278Z,71.97
2022-10-19T08:21:37.052Z,72.25
2022-10-19T08:24:04.861Z,71.90
2022-10-19T08:26:32.908Z,66.66
2022-10-19T08:29:00.834Z,62.36
2022-10-19T08:31:28.427Z,63.62
2022-10-19T08:33:55.780Z,63.69
2022-10-19T08:36:22.949Z,62.25
2022-10-19T08:38:50.330Z,62.89
2022-10-19T08:41:29.313Z,62.60
2022-10-19T08:43:56.462Z,61.15
2022-10-19T08:46:27.594Z,59.55
2022-10-19T08:48:55.704Z,61.29
2022-10-19T08:51:22.753Z,61.89
2022-10-19T08:53:54.633Z,62.55
2022-10-19T08:56:52.323Z,63.04
2022-10-19T08:59:15.538Z,63.94
2022-10-19T09:01:49.876Z,64.39
2022-10-19T09:04:30.137Z,65.02
2022-10-19T09:06:57.534Z,66.08
2022-10-19T09:09:25.343Z,66.81
2022-10-19T09:11:55.755Z,66.27
2022-10-19T09:14:26.003Z,67.75
2022-10-19T09:16:54.641Z,67.38
2022-10-19T09:19:25.859Z,67.53
2022-10-19T09:21:57.811Z,67.65
2022-10-19T09:24:30.769Z,68.66
2022-10-19T09:27:02.400Z,68.13
2022-10-19T09:29:42.358Z,67.84
2022-10-19T09:32:15.585Z,66.58
2022-10-19T09:34:58.896Z,66.29
2022-10-19T09:37:26.902Z,66.06
2022-10-19T09:39:55.806Z,66.51
2022-10-19T09:42:25.776Z,66.59
2022-10-19T09:44:52.998Z,66.11
2022-10-19T09:47:26.894Z,66.53
2022-10-19T09:50:05.331Z,66.04
2022-10-19T09:52:35.374Z,65.46
2022-10-19T09:55:14.699Z,65.82
2022-10-19T09:57:46.038Z,66.47
2022-10-19T10:00:26.354Z,66.54
2022-10-19T10:02:54.832Z,65.52
2022-10-19T10:05:33.241Z,65.31
2022-10-19T10:08:00.620Z,65.17
2022-10-19T10:10:30.571Z,65.11
2022-10-19T10:12:58.720Z,65.20
2022-10-19T10:15:31.426Z,65.19
2022-10-19T10:17:59.088Z,64.79
2022-10-19T10:20:28.335Z,64.81
2022-10-19T10:22:59.636Z,64.50
2022-10-19T10:25:28.729Z,64.80
2022-10-19T10:28:19.152Z,64.65
2022-10-19T10:30:51.054Z,64.58
2022-10-19T10:33:43.729Z,64.81
2022-10-19T10:36:12.571Z,64.84
2022-10-19T10:38:47.340Z,64.40
2022-10-19T10:41:18.269Z,64.43
2022-10-19T10:43:59.718Z,63.89
2022-10-19T10:46:34.658Z,64.14
2022-10-19T10:49:04.699Z,63.24
2022-10-19T10:51:38.556Z,63.12
2022-10-19T10:54:22.114Z,62.91
2022-10-19T10:57:09.761Z,63.03
2022-10-19T10:59:52.672Z,63.28
2022-10-19T11:02:38.438Z,63.07
2022-10-19T11:05:24.362Z,62.75
2022-10-19T11:07:57.856Z,62.58
2022-10-19T11:10:36.486Z,62.91
2022-10-19T11:13:04.347Z,62.74
2022-10-19T11:15:35.404Z,63.23
2022-10-19T11:18:08.699Z,63.67
2022-10-19T11:20:39.403Z,62.78
2022-10-19T11:23:19.512Z,63.10
2022-10-19T11:26:07.618Z,62.17
2022-10-19T11:28:34.896Z,61.69
2022-10-19T11:31:07.852Z,61.26
2022-10-19T11:33:53.352Z,61.18
2022-10-19T11:36:40.647Z,60.93
2022-10-19T11:39:23.973Z,60.92
2022-10-19T11:41:59.113Z,61.33
2022-10-19T11:44:46.974Z,60.60
2022-10-19T11:47:32.485Z,58.14
2022-10-19T11:49:59.990Z,59.28
2022-10-19T11:52:27.365Z,59.64
2022-10-19T11:55:01.346Z,59.24
2022-10-19T11:57:37.136Z,59.05
2022-10-19T12:00:39.783Z,59.25
2022-10-19T12:03:10.292Z,59.67
2022-10-19T12:05:51.224Z,59.77
2022-10-19T12:08:43.107Z,59.85
2022-10-19T12:11:13.570Z,58.78
2022-10-19T12:13:44.322Z,58.80
2022-10-19T12:16:13.340Z,58.86
2022-10-19T12:18:46.289Z,58.68
2022-10-19T12:21:13.337Z,57.86
2022-10-19T12:23:44.147Z,57.60
2022-10-19T12:26:14.833Z,57.24
2022-10-19T12:28:49.182Z,57.20
2022-10-19T12:31:18.058Z,56.94
2022-10-19T12:33:47.959Z,57.30
2022-10-19T12:36:25.980Z,58.16
2022-10-19T12:39:08.340Z,58.51
2022-10-19T12:41:41.561Z,57.18
2022-10-19T12:44:14.760Z,56.47
2022-10-19T12:46:48.426Z,56.24
2022-10-19T12:49:28.853Z,56.49
2022-10-19T12:51:59.662Z,56.44
2022-10-19T12:54:28.233Z,56.16
2022-10-19T12:56:56.798Z,56.14
2022-10-19T12:59:34.293Z,55.75
2022-10-19T13:02:04.449Z,56.09
2022-10-19T13:04:33.108Z,55.82
2022-10-19T13:07:02.375Z,54.99
2022-10-19T13:09:34.722Z,53.27
2022-10-19T13:12:17.665Z,51.24
2022-10-19T13:14:51.760Z,51.99
2022-10-19T13:17:38.223Z,51.88
2022-10-19T13:20:15.723Z,52.42
2022-10-19T13:22:47.311Z,52.44
2022-10-19T13:25:27.746Z,52.52
2022-10-19T13:28:06.998Z,52.07
2022-10-19T13:30:38.140Z,51.88
2022-10-19T13:33:29.914Z,52.26
2022-10-19T13:36:00.013Z,52.84
2022-10-19T13:38:28.707Z,53.17
2022-10-19T13:41:15.341Z,52.85
2022-10-19T13:43:46.448Z,53.10
2022-10-19T13:46:18.709Z,53.78
2022-10-19T13:48:45.770Z,53.60
2022-10-19T13:51:16.981Z,52.32
2022-10-19T13:53:49.413Z,53.01
2022-10-19T13:56:29.168Z,53.47
2022-10-19T13:59:14.835Z,54.02
2022-10-19T14:01:43.019Z,53.19
2022-10-19T14:04:10.518Z,51.80
2022-10-19T14:06:40.396Z,51.65
2022-10-19T14:09:26.601Z,52.20
2022-10-19T14:12:04.296Z,52.23
2022-10-19T14:14:39.477Z,51.79
2022-10-19T14:17:13.908Z,51.78
2022-10-19T14:19:45.854Z,51.23
2022-10-19T14:22:35.953Z,51.56
2022-10-19T14:25:06.717Z,51.43
2022-10-19T14:27:34.919Z,52.08
2022-10-19T14:30:02.306Z,52.39
2022-10-19T14:32:30.144Z,52.24
2022-10-19T14:37:37.860Z,52.33
2022-10-19T14:40:05.273Z,52.28
2022-10-19T14:42:40.469Z,52.39
2022-10-19T14:45:17.469Z,52.59
2022-10-19T14:47:54.930Z,52.43
2022-10-19T14:50:24.795Z,50.27
2022-10-19T14:52:55.389Z,50.20
2022-10-19T14:55:23.376Z,49.06
2022-10-19T14:57:51.835Z,48.63
2022-10-19T15:00:21.072Z,49.50
2022-10-19T15:02:54.154Z,50.06
2022-10-19T15:05:23.707Z,51.29
2022-10-19T15:07:51.185Z,51.70
2022-10-19T15:10:24.283Z,51.64
2022-10-19T15:12:52.688Z,51.57
2022-10-19T15:15:24.936Z,51.66
2022-10-19T15:17:55.795Z,52.37
2022-10-19T15:20:25.209Z,52.78
2022-10-19T15:22:52.521Z,52.24
2022-10-19T15:25:24.956Z,51.73
2022-10-19T15:27:53.663Z,52.22
2022-10-19T15:30:28.446Z,52.21
2022-10-19T15:33:01.512Z,52.84
2022-10-19T15:35:30.324Z,52.95
2022-10-19T15:38:04.793Z,53.22
2022-10-19T15:40:36.207Z,53.32
2022-10-19T15:43:22.136Z,53.91
2022-10-19T15:45:58.899Z,54.14
2022-10-19T15:48:27.279Z,54.26
2022-10-19T15:50:55.051Z,54.56
2022-10-19T15:53:22.611Z,54.82
2022-10-19T15:55:49.756Z,54.51
2022-10-19T15:58:17.936Z,54.96
2022-10-19T16:00:45.016Z,55.27
2022-10-19T16:03:12.148Z,55.52
2022-10-19T16:05:39.317Z,55.74
2022-10-19T16:08:10.103Z,56.36
2022-10-19T16:10:39.502Z,56.72
2022-10-19T16:13:06.647Z,57.03
2022-10-19T16:15:33.769Z,57.46
2022-10-19T16:18:01.057Z,57.42
2022-10-19T16:20:29.398Z,57.78
2022-10-19T16:22:57.037Z,57.98
2022-10-19T16:25:24.221Z,58.31
2022-10-19T16:27:51.582Z,58.66
2022-10-19T16:30:18.832Z,58.88
2022-10-19T16:32:49.683Z,59.30
2022-10-19T16:35:16.871Z,59.52
2022-10-19T16:37:44.027Z,59.84
2022-10-19T16:40:11.390Z,59.96
2022-10-19T16:42:39.140Z,60.28
2022-10-19T16:45:06.570Z,60.37
2022-10-19T16:47:33.654Z,60.52
2022-10-19T16:50:01.587Z,61.14
2022-10-19T16:52:29.359Z,61.41
2022-10-19T16:54:56.828Z,61.56
2022-10-19T16:57:23.916Z,61.72
2022-10-19T17:02:22.174Z,62.22
2022-10-19T17:04:49.340Z,62.71
2022-10-19T17:07:16.537Z,63.01
2022-10-19T17:09:43.722Z,63.24
2022-10-19T17:12:11.664Z,63.43
2022-10-19T17:14:39.844Z,63.52
2022-10-19T17:17:07.232Z,63.79
2022-10-19T17:19:34.520Z,64.00
2022-10-19T17:22:02.951Z,64.13
2022-10-19T17:24:30.157Z,64.44
2022-10-19T17:26:57.276Z,64.47
2022-10-19T17:29:24.444Z,64.66
2022-10-19T17:31:52.617Z,65.16
2022-10-19T17:34:19.808Z,65.96
2022-10-19T17:36:47.238Z,66.37
2022-10-19T17:39:17.935Z,66.68
2022-10-19T17:41:46.046Z,66.93
2022-10-19T17:44:13.332Z,67.00
2022-10-19T17:46:40.436Z,67.23
2022-10-19T17:49:07.585Z,67.39
2022-10-19T17:51:35.827Z,67.65
2022-10-19T17:54:05.343Z,67.70
2022-10-19T17:56:32.476Z,67.92
2022-10-19T17:59:00.017Z,68.29
2022-10-19T18:01:27.146Z,68.55
2022-10-19T18:03:54.443Z,68.93
2022-10-19T18:06:26.408Z,69.42
2022-10-19T18:08:54.526Z,69.60
2022-10-19T18:11:21.738Z,70.00
2022-10-19T18:13:49.539Z,70.42
2022-10-19T18:16:20.799Z,70.59
2022-10-19T18:18:48.908Z,70.82
2022-10-19T18:21:17.487Z,71.13
2022-10-19T18:23:45.488Z,71.33
2022-10-19T18:26:14.859Z,71.22
2022-10-19T18:28:42.230Z,71.58
2022-10-19T18:31:10.648Z,72.10
2022-10-19T18:33:38.229Z,72.63
2022-10-19T18:36:06.151Z,73.06
2022-10-19T18:38:33.420Z,73.60
2022-10-19T18:41:01.700Z,73.88
2022-10-19T18:43:28.898Z,74.38
2022-10-19T18:45:57.485Z,74.86
2022-10-19T18:48:25.275Z,75.16
2022-10-19T18:50:52.407Z,75.49
2022-10-19T18:53:19.588Z,75.87
2022-10-19T18:55:56.123Z,76.10
2022-10-19T18:58:23.198Z,76.49
2022-10-19T19:00:50.359Z,76.85
2022-10-19T19:03:17.762Z,77.55
2022-10-19T19:05:45.130Z,77.81
2022-10-19T19:08:12.602Z,77.66
2022-10-19T19:10:40.203Z,77.63
2022-10-19T19:13:08.168Z,77.90
2022-10-19T19:15:35.561Z,78.00
2022-10-19T19:18:02.898Z,78.03
2022-10-19T19:20:30.538Z,78.76
2022-10-19T19:22:59.399Z,78.15
2022-10-19T19:25:26.632Z,78.18
2022-10-19T19:27:54.496Z,78.84
2022-10-19T19:30:22.157Z,78.59
2022-10-19T19:32:49.815Z,78.69
2022-10-19T19:35:17.589Z,78.71
2022-10-19T19:37:45.322Z,78.67
2022-10-19T19:40:13.093Z,78.67
2022-10-19T19:42:40.877Z,79.04
2022-10-19T19:45:08.803Z,79.41
2022-10-19T19:47:37.743Z,79.55
2022-10-19T19:50:08.970Z,80.13
2022-10-19T19:52:40.246Z,80.19
2022-10-19T19:55:08.387Z,80.10
2022-10-19T19:57:35.810Z,79.52
2022-10-19T20:00:03.323Z,79.04
2022-10-19T20:02:39.358Z,78.99
2022-10-19T20:05:06.603Z,79.36
2022-10-19T20:07:33.912Z,79.76
2022-10-19T20:10:01.469Z,79.60
2022-10-19T20:12:29.815Z,79.25
2022-10-19T20:14:56.978Z,79.28
2022-10-19T20:17:25.111Z,79.07
2022-10-19T20:19:52.196Z,79.37
2022-10-19T20:24:47.426Z,79.64
2022-10-19T20:27:15.026Z,79.49
2022-10-19T20:29:42.198Z,79.33
2022-10-19T20:32:09.404Z,78.99
2022-10-19T20:34:36.719Z,78.79
2022-10-19T20:37:03.813Z,78.45
2022-10-19T20:39:30.994Z,78.72
2022-10-19T20:41:58.165Z,78.07
2022-10-19T20:44:25.416Z,77.49
2022-10-19T20:46:52.497Z,77.47
2022-10-19T20:49:19.660Z,77.48
2022-10-19T20:51:47.658Z,76.45
2022-10-19T20:54:14.829Z,76.68
2022-10-19T20:56:42.218Z,76.81
2022-10-19T20:59:13.750Z,76.81
2022-10-19T21:01:41.645Z,76.33
2022-10-19T21:04:10.914Z,75.64
2022-10-19T21:06:42.550Z,75.22
2022-10-19T21:09:10.306Z,74.68
2022-10-19T21:11:38.948Z,74.42
2022-10-19T21:14:07.548Z,74.80
2022-10-19T21:16:37.808Z,74.43
2022-10-19T21:19:05.935Z,74.12
2022-10-19T21:21:34.558Z,73.71
2022-10-19T21:24:07.061Z,73.89
2022-10-19T21:26:35.720Z,74.13
2022-10-19T21:29:03.522Z,73.98
2022-10-19T21:31:31.054Z,73.96
2022-10-19T21:33:58.264Z,74.64
2022-10-19T21:36:25.490Z,74.83
2022-10-19T21:38:52.703Z,75.36
2022-10-19T21:41:23.798Z,75.60
2022-10-19T21:43:54.385Z,75.55
2022-10-19T21:46:22.975Z,75.38
2022-10-19T21:48:51.514Z,75.50
2022-10-19T21:51:27.681Z,75.53
2022-10-19T21:53:55.632Z,75.66
2022-10-19T21:56:22.795Z,75.86
2022-10-19T21:58:53.737Z,76.19
2022-10-19T22:01:24.500Z,76.56
2022-10-19T22:03:56.141Z,76.73
2022-10-19T22:06:23.829Z,76.63
2022-10-19T22:08:51.170Z,76.79
2022-10-19T22:11:18.675Z,76.37
2022-10-19T22:13:46.198Z,76.23
2022-10-19T22:16:13.271Z,76.37
2022-10-19T22:18:40.439Z,76.57
2022-10-19T22:21:09.294Z,76.95
2022-10-19T22:23:36.553Z,77.00
2022-10-19T22:26:11.435Z,76.74
2022-10-19T22:28:38.604Z,77.01
2022-10-19T22:31:05.784Z,77.36
2022-10-19T22:33:34.072Z,77.10
2022-10-19T22:36:02.119Z,77.30
2022-10-19T22:38:29.202Z,77.44
2022-10-19T22:40:56.295Z,76.36
2022-10-19T22:43:23.355Z,76.42
2022-10-19T22:45:50.417Z,76.50
2022-10-19T22:48:18.081Z,76.84
2022-10-19T22:50:45.655Z,76.86
2022-10-19T22:53:13.128Z,76.60
2022-10-19T22:55:40.192Z,76.81
2022-10-19T22:58:08.257Z,76.74
2022-10-19T23:00:35.943Z,77.23
2022-10-19T23:03:03.031Z,77.12
2022-10-19T23:05:30.220Z,76.75
2022-10-19T23:07:57.315Z,77.10
2022-10-19T23:10:24.494Z,78.70
2022-10-19T23:12:51.916Z,78.38
2022-10-19T23:15:19.333Z,78.25
2022-10-19T23:17:46.778Z,78.23
2022-10-19T23:20:14.059Z,77.86
2022-10-19T23:22:41.153Z,77.30
2022-10-19T23:25:08.687Z,77.32
2022-10-19T23:27:36.119Z,77.10
2022-10-19T23:30:04.398Z,77.32
2022-10-19T23:32:31.740Z,77.34
2022-10-19T23:34:58.889Z,77.02
2022-10-19T23:37:26.073Z,76.93
2022-10-19T23:39:53.207Z,76.95
2022-10-19T23:42:21.247Z,77.38
2022-10-19T23:44:48.365Z,77.69
2022-10-19T23:47:15.496Z,77.83
2022-10-19T23:49:42.645Z,77.70
2022-10-19T23:52:09.825Z,77.83
2022-10-19T23:54:37.077Z,77.77
2022-10-19T23:57:04.449Z,77.58
2022-10-19T23:59:31.555Z,77.79
